Time;durP1;ratioP1;P1;durP2;ratioP2;P2;SDS_P1;SDS_P2;PMS_P1;PMS_P2;Temp;Humidity;BMP_temperature;BMP_pressure;BME280_temperature;BME280_humidity;BME280_pressure;Samples;Min_cycle;Max_cycle;Signal;HPM_P1;HPM_P2
2021/04/09 00:01:58;;;;;;;;;;;24.00;73.80;;;;;;4126200;28;19920;-42
2021/04/09 00:03:59;;;;;;;;;;;24.00;73.80;;;;;;4125665;28;20658;-40
2021/04/09 00:06:01;;;;;;;;;;;24.00;73.70;;;;;;4120793;28;19916;-49
2021/04/09 00:08:02;;;;;;;;;;;24.00;73.70;;;;;;4122067;28;19929;-44
2021/04/09 00:10:10;;;;;;;;;;;24.00;73.60;;;;;;4118746;28;19949;-43
2021/04/09 00:12:12;;;;;;;;;;;24.00;73.50;;;;;;4119689;28;19918;-44
2021/04/09 00:14:14;;;;;;;;;;;24.00;73.30;;;;;;4113801;28;20024;-48
2021/04/09 00:16:16;;;;;;;;;;;24.10;73.40;;;;;;4119838;28;19922;-49
2021/04/09 00:18:17;;;;;;;;;;;24.10;73.30;;;;;;4116952;28;19929;-44
2021/04/09 00:20:20;;;;;;;;;;;24.00;73.60;;;;;;4112589;28;19917;-46
2021/04/09 00:22:21;;;;;;;;;;;24.10;74.00;;;;;;4113161;28;19913;-43
2021/04/09 00:24:23;;;;;;;;;;;24.20;74.40;;;;;;4118254;28;20276;-43
2021/04/09 00:26:24;;;;;;;;;;;24.20;74.50;;;;;;4118643;28;19913;-46
2021/04/09 00:28:26;;;;;;;;;;;24.20;74.30;;;;;;4117597;28;19925;-48
2021/04/09 00:30:28;;;;;;;;;;;24.20;74.20;;;;;;4115709;28;19922;-46
2021/04/09 00:32:30;;;;;;;;;;;24.30;74.20;;;;;;4117241;28;19949;-44
2021/04/09 00:34:31;;;;;;;;;;;24.30;74.10;;;;;;4117164;28;20228;-44
2021/04/09 00:36:34;;;;;;;;;;;24.40;74.10;;;;;;4120737;28;20044;-43
2021/04/09 00:38:35;;;;;;;;;;;24.40;74.00;;;;;;4114188;28;20275;-45
2021/04/09 00:40:37;;;;;;;;;;;24.40;74.10;;;;;;4117326;28;20549;-45
2021/04/09 00:42:40;;;;;;;;;;;24.50;74.10;;;;;;4116287;28;19921;-48
2021/04/09 00:44:41;;;;;;;;;;;24.50;74.10;;;;;;4118660;28;19984;-46
2021/04/09 00:46:43;;;;;;;;;;;24.50;74.20;;;;;;4112943;28;20367;-44
2021/04/09 00:48:44;;;;;;;;;;;24.50;73.40;;;;;;4115612;28;20437;-44
2021/04/09 00:50:46;;;;;;;;;;;24.50;72.90;;;;;;4112354;28;19992;-51
2021/04/09 00:52:48;;;;;;;;;;;24.50;72.50;;;;;;4116443;28;19918;-42
2021/04/09 00:54:50;;;;;;;;;;;24.50;72.30;;;;;;4117610;28;19932;-43
2021/04/09 00:56:52;;;;;;;;;;;24.60;72.40;;;;;;4115340;28;20838;-43
2021/04/09 00:58:55;;;;;;;;;;;24.60;72.60;;;;;;4117651;28;20136;-42
2021/04/09 01:00:57;;;;;;;;;;;24.60;72.60;;;;;;4119035;28;19917;-44
2021/04/09 01:02:59;;;;;;;;;;;24.60;72.70;;;;;;4113988;28;20364;-43
2021/04/09 01:05:01;;;;;;;;;;;;;;;;;;4117947;28;19933;-42
2021/04/09 01:07:02;;;;;;;;;;;;;;;;;;4114303;28;20011;-49
2021/04/09 01:09:03;;;;;;;;;;;;;;;;;;4115706;28;19974;-44
2021/04/09 01:11:05;;;;;;;;;;;;;;;;;;4116988;28;20240;-46
2021/04/09 01:13:06;;;;;;;;;;;24.60;72.70;;;;;;4114640;28;19925;-43
2021/04/09 01:15:09;;;;;;;;;;;24.70;72.60;;;;;;4116587;28;19925;-45
2021/04/09 01:17:30;;;;;;;;;;;24.80;72.70;;;;;;4113001;28;19925;-42
2021/04/09 01:19:47;;;;;;;;;;;24.80;72.60;;;;;;4107611;28;20032;-45
2021/04/09 01:21:55;;;;;;;;;;;24.80;72.60;;;;;;4113414;28;19924;-43
2021/04/09 01:24:05;;;;;;;;;;;24.80;72.50;;;;;;4117360;28;19925;-43
2021/04/09 01:26:19;;;;;;;;;;;24.80;72.60;;;;;;4115495;28;20216;-43
2021/04/09 01:28:39;;;;;;;;;;;24.80;72.50;;;;;;4117356;28;19921;-42
2021/04/09 01:30:52;;;;;;;;;;;24.80;72.50;;;;;;4112394;28;19920;-44
2021/04/09 01:32:55;;;;;;;;;;;24.80;72.30;;;;;;4118074;28;20105;-45
2021/04/09 01:35:04;;;;;;;;;;;24.80;72.30;;;;;;4119161;28;20040;-44
2021/04/09 01:37:18;;;;;;;;;;;24.80;72.30;;;;;;4113929;28;20379;-41
2021/04/09 01:39:31;;;;;;;;;;;24.80;72.30;;;;;;4114622;28;19909;-41
2021/04/09 01:41:36;;;;;;;;;;;24.90;72.30;;;;;;4116371;28;19914;-44
2021/04/09 01:43:38;;;;;;;;;;;24.80;72.10;;;;;;4116941;28;19914;-45
2021/04/09 01:45:40;;;;;;;;;;;24.90;72.20;;;;;;4113573;28;19918;-42
2021/04/09 01:47:42;;;;;;;;;;;24.90;72.20;;;;;;4118054;28;19914;-42
2021/04/09 01:49:44;;;;;;;;;;;24.90;72.20;;;;;;4117559;28;19921;-42
2021/04/09 01:51:47;;;;;;;;;;;24.90;72.10;;;;;;4100033;28;19918;-42
2021/04/09 01:53:49;;;;;;;;;;;24.90;72.10;;;;;;4114118;28;20396;-42
2021/04/09 01:55:51;;;;;;;;;;;24.90;72.00;;;;;;4117315;28;19917;-40
2021/04/09 01:57:53;;;;;;;;;;;24.90;71.80;;;;;;4114283;28;19917;-50
2021/04/09 01:59:56;;;;;;;;;;;24.90;71.50;;;;;;4115310;28;19966;-47
2021/04/09 02:01:59;;;;;;;;;;;24.90;70.60;;;;;;4115260;28;20464;-53
2021/04/09 02:04:01;;;;;;;;;;;24.90;70.30;;;;;;4116307;28;19925;-48
2021/04/09 02:06:03;;;;;;;;;;;24.90;69.90;;;;;;4116839;28;20415;-45
2021/04/09 02:08:05;;;;;;;;;;;24.90;70.10;;;;;;4119231;28;20035;-44
2021/04/09 02:10:07;;;;;;;;;;;24.90;70.40;;;;;;4116838;28;20044;-47
2021/04/09 02:12:10;;;;;;;;;;;24.90;70.50;;;;;;4115461;28;20457;-47
2021/04/09 02:14:13;;;;;;;;;;;24.90;70.60;;;;;;4118466;28;20295;-45
2021/04/09 02:16:14;;;;;;;;;;;24.90;70.70;;;;;;4116455;28;19914;-53
2021/04/09 02:18:16;;;;;;;;;;;24.90;70.70;;;;;;4115822;28;19956;-51
2021/04/09 02:20:18;;;;;;;;;;;24.90;70.80;;;;;;4117598;28;20382;-46
2021/04/09 02:22:19;;;;;;;;;;;24.90;70.80;;;;;;4116594;28;19914;-48
2021/04/09 02:24:21;;;;;;;;;;;25.00;70.80;;;;;;4115631;28;19917;-50
2021/04/09 02:26:22;;;;;;;;;;;25.00;70.90;;;;;;4117466;28;19925;-47
2021/04/09 02:28:25;;;;;;;;;;;25.00;70.80;;;;;;4117863;28;19983;-52
2021/04/09 02:30:26;;;;;;;;;;;25.00;70.90;;;;;;4116505;28;20292;-47
2021/04/09 02:32:27;;;;;;;;;;;25.00;70.90;;;;;;4116178;28;20387;-51
2021/04/09 02:34:29;;;;;;;;;;;25.00;70.90;;;;;;4112824;28;20278;-47
2021/04/09 02:36:31;;;;;;;;;;;25.10;71.00;;;;;;4117363;28;20243;-45
2021/04/09 02:38:33;;;;;;;;;;;25.10;70.90;;;;;;4112321;28;20306;-50
2021/04/09 02:40:35;;;;;;;;;;;25.10;70.80;;;;;;4116361;28;19925;-45
2021/04/09 02:42:38;;;;;;;;;;;25.10;70.80;;;;;;4113660;28;19999;-44
2021/04/09 02:44:39;;;;;;;;;;;25.10;70.70;;;;;;4114439;28;20259;-45
2021/04/09 02:46:56;;;;;;;;;;;25.10;70.70;;;;;;4116866;28;19913;-44
2021/04/09 02:49:00;;;;;;;;;;;25.20;70.80;;;;;;4111633;28;19980;-51
2021/04/09 02:51:05;;;;;;;;;;;25.20;70.70;;;;;;4112895;28;19914;-51
2021/04/09 02:53:08;;;;;;;;;;;25.20;70.70;;;;;;4116860;28;19972;-47
2021/04/09 02:55:14;;;;;;;;;;;25.20;70.60;;;;;;4118255;28;19969;-43
2021/04/09 02:57:15;;;;;;;;;;;25.20;70.30;;;;;;4112552;28;19925;-45
2021/04/09 02:59:17;;;;;;;;;;;25.20;69.10;;;;;;4117552;28;20474;-47
2021/04/09 03:01:23;;;;;;;;;;;25.10;68.40;;;;;;4119091;28;19918;-47
2021/04/09 03:03:25;;;;;;;;;;;25.10;68.00;;;;;;4119016;28;20024;-45
2021/04/09 03:05:27;;;;;;;;;;;25.10;67.70;;;;;;4120304;28;19914;-46
2021/04/09 03:07:28;;;;;;;;;;;25.10;67.40;;;;;;4118521;28;19989;-49
2021/04/09 03:09:30;;;;;;;;;;;25.10;67.20;;;;;;4119541;28;19957;-51
2021/04/09 03:11:32;;;;;;;;;;;25.10;67.40;;;;;;4116744;28;20340;-46
2021/04/09 03:13:34;;;;;;;;;;;25.10;67.30;;;;;;4119309;28;19918;-46
2021/04/09 03:15:44;;;;;;;;;;;25.10;67.40;;;;;;4102114;28;19968;-47
2021/04/09 03:17:53;;;;;;;;;;;25.10;67.50;;;;;;4115368;28;20410;-47
2021/04/09 03:19:54;;;;;;;;;;;25.10;67.40;;;;;;4111294;28;20354;-44
2021/04/09 03:21:56;;;;;;;;;;;25.10;67.40;;;;;;4114543;28;20279;-48
2021/04/09 03:23:57;;;;;;;;;;;25.10;67.40;;;;;;4115015;28;20386;-46
2021/04/09 03:25:59;;;;;;;;;;;25.10;67.30;;;;;;4115959;28;19913;-48
2021/04/09 03:28:00;;;;;;;;;;;25.10;67.20;;;;;;4113268;28;20308;-48
2021/04/09 03:30:02;;;;;;;;;;;25.10;67.30;;;;;;4115879;28;20236;-49
2021/04/09 03:32:04;;;;;;;;;;;25.20;67.40;;;;;;4117255;28;19918;-52
2021/04/09 03:34:05;;;;;;;;;;;25.20;67.30;;;;;;4114584;28;20004;-47
2021/04/09 03:36:07;;;;;;;;;;;25.20;67.30;;;;;;4116725;28;19921;-45
2021/04/09 03:38:08;;;;;;;;;;;25.20;67.30;;;;;;4117181;28;19910;-45
2021/04/09 03:40:10;;;;;;;;;;;25.20;67.10;;;;;;4114650;28;20423;-45
2021/04/09 03:42:12;;;;;;;;;;;25.20;67.00;;;;;;4110763;28;19940;-45
2021/04/09 03:44:14;;;;;;;;;;;25.30;66.80;;;;;;4116923;28;20432;-46
2021/04/09 03:46:15;;;;;;;;;;;25.30;66.60;;;;;;4114020;28;19976;-45
2021/04/09 03:48:17;;;;;;;;;;;25.30;66.40;;;;;;4113425;28;19933;-48
2021/04/09 03:50:18;;;;;;;;;;;25.30;66.30;;;;;;4112957;28;20004;-50
2021/04/09 03:52:19;;;;;;;;;;;25.40;66.20;;;;;;4113612;28;19917;-47
2021/04/09 03:54:21;;;;;;;;;;;25.40;65.90;;;;;;4115985;28;19918;-46
2021/04/09 03:56:23;;;;;;;;;;;25.40;65.70;;;;;;4110830;28;20303;-47
2021/04/09 03:58:24;;;;;;;;;;;25.50;65.80;;;;;;4116786;28;20289;-47
2021/04/09 04:00:26;;;;;;;;;;;25.50;65.70;;;;;;4112329;28;19922;-46
2021/04/09 04:02:27;;;;;;;;;;;25.50;65.60;;;;;;4113879;28;19920;-45
2021/04/09 04:04:28;;;;;;;;;;;;;;;;;;4111902;28;20592;-49
2021/04/09 04:06:30;;;;;;;;;;;;;;;;;;4117049;28;19940;-47
2021/04/09 04:08:31;;;;;;;;;;;;;;;;;;4116937;28;19928;-47
2021/04/09 04:10:33;;;;;;;;;;;;;;;;;;4114740;28;20032;-53
2021/04/09 04:12:34;;;;;;;;;;;;;;;;;;4112939;28;19992;-47
2021/04/09 04:14:35;;;;;;;;;;;;;;;;;;4112776;28;20402;-45
2021/04/09 04:16:37;;;;;;;;;;;;;;;;;;4112371;28;20527;-50
2021/04/09 04:18:38;;;;;;;;;;;;;;;;;;4112353;28;20481;-53
2021/04/09 04:20:39;;;;;;;;;;;;;;;;;;4110310;28;20352;-51
2021/04/09 04:22:41;;;;;;;;;;;;;;;;;;4112936;28;19922;-50
2021/04/09 04:24:42;;;;;;;;;;;;;;;;;;4113501;28;19997;-48
2021/04/09 04:26:44;;;;;;;;;;;;;;;;;;4116012;28;19917;-49
2021/04/09 04:28:45;;;;;;;;;;;;;;;;;;4113129;28;19987;-48
2021/04/09 04:30:50;;;;;;;;;;;;;;;;;;4110325;28;19928;-47
2021/04/09 04:32:51;;;;;;;;;;;;;;;;;;4120549;28;19945;-50
2021/04/09 04:34:53;;;;;;;;;;;;;;;;;;4123361;28;19924;-53
2021/04/09 04:36:54;;;;;;;;;;;;;;;;;;4119117;28;20524;-48
2021/04/09 04:38:55;;;;;;;;;;;;;;;;;;4120456;28;20344;-55
2021/04/09 04:40:57;;;;;;;;;;;;;;;;;;4118869;28;19968;-51
2021/04/09 04:42:58;;;;;;;;;;;25.60;65.60;;;;;;4120139;28;20004;-45
2021/04/09 04:45:00;;;;;;;;;;;26.50;63.40;;;;;;4109229;28;19925;-47
2021/04/09 04:47:02;;;;;;;;;;;26.60;62.90;;;;;;4112284;28;20363;-52
2021/04/09 04:49:05;;;;;;;;;;;26.60;62.80;;;;;;4115624;28;20008;-51
2021/04/09 04:51:07;;;;;;;;;;;26.60;62.50;;;;;;4107692;28;20668;-50
2021/04/09 04:53:08;;;;;;;;;;;26.70;62.30;;;;;;4115359;28;20011;-46
2021/04/09 04:55:10;;;;;;;;;;;26.80;62.00;;;;;;4110560;28;19917;-52
2021/04/09 04:57:12;;;;;;;;;;;26.80;61.80;;;;;;4108070;28;20005;-48
2021/04/09 04:59:13;;;;;;;;;;;26.90;61.50;;;;;;4110100;28;19968;-47
2021/04/09 05:01:15;;;;;;;;;;;26.90;61.60;;;;;;4105931;28;20013;-50
2021/04/09 05:03:16;;;;;;;;;;;27.00;61.40;;;;;;4109082;28;19929;-54
2021/04/09 05:05:18;;;;;;;;;;;27.00;61.40;;;;;;4105771;28;20587;-46
2021/04/09 05:07:19;;;;;;;;;;;27.10;61.50;;;;;;4109049;28;20346;-51
2021/04/09 05:09:21;;;;;;;;;;;27.00;61.80;;;;;;4106890;28;20463;-49
2021/04/09 05:11:22;;;;;;;;;;;27.00;61.70;;;;;;4112863;28;19914;-54
2021/04/09 05:13:24;;;;;;;;;;;27.00;61.60;;;;;;4113584;28;19918;-48
2021/04/09 05:15:25;;;;;;;;;;;27.00;61.80;;;;;;4114368;28;19917;-48
2021/04/09 05:17:28;;;;;;;;;;;27.00;61.80;;;;;;4110821;28;20028;-53
2021/04/09 05:19:30;;;;;;;;;;;27.00;61.90;;;;;;4106169;28;20045;-49
2021/04/09 05:21:32;;;;;;;;;;;27.00;61.90;;;;;;4113632;28;19924;-48
2021/04/09 05:23:34;;;;;;;;;;;27.00;62.00;;;;;;4115280;28;19957;-50
2021/04/09 05:25:37;;;;;;;;;;;27.00;62.00;;;;;;4109283;28;19925;-53
2021/04/09 05:27:39;;;;;;;;;;;27.00;62.00;;;;;;4113609;28;19940;-54
2021/04/09 05:29:40;;;;;;;;;;;27.10;62.00;;;;;;4118158;28;19967;-50
2021/04/09 05:31:42;;;;;;;;;;;27.10;62.20;;;;;;4113886;28;20376;-53
2021/04/09 05:33:43;;;;;;;;;;;27.10;62.30;;;;;;4116000;28;20450;-49
2021/04/09 05:35:46;;;;;;;;;;;27.10;62.40;;;;;;4121611;28;20016;-53
2021/04/09 05:37:47;;;;;;;;;;;27.10;62.30;;;;;;4116194;28;19924;-56
2021/04/09 05:39:49;;;;;;;;;;;27.10;62.20;;;;;;4116992;28;19972;-50
2021/04/09 05:41:50;;;;;;;;;;;27.10;62.30;;;;;;4119564;28;19910;-53
2021/04/09 05:43:51;;;;;;;;;;;27.10;62.10;;;;;;4117117;28;20604;-55
2021/04/09 05:45:53;;;;;;;;;;;27.10;62.20;;;;;;4111030;28;20052;-53
2021/04/09 05:48:00;;;;;;;;;;;27.10;62.20;;;;;;4117453;28;19980;-52
2021/04/09 05:50:02;;;;;;;;;;;27.10;62.10;;;;;;4114457;28;20008;-52
2021/04/09 05:52:05;;;;;;;;;;;27.10;62.10;;;;;;4112882;28;20358;-53
2021/04/09 05:54:07;;;;;;;;;;;27.10;62.10;;;;;;4110580;28;20337;-58
2021/04/09 05:56:08;;;;;;;;;;;27.10;62.10;;;;;;4109169;28;20004;-51
2021/04/09 05:58:10;;;;;;;;;;;27.10;62.20;;;;;;4105996;28;20245;-49
2021/04/09 06:00:12;;;;;;;;;;;27.20;62.40;;;;;;4110482;28;20317;-51
2021/04/09 06:02:14;;;;;;;;;;;27.20;62.40;;;;;;4115885;28;20008;-49
2021/04/09 06:04:16;;;;;;;;;;;27.10;62.20;;;;;;4111830;28;20000;-50
2021/04/09 06:06:17;;;;;;;;;;;27.10;62.30;;;;;;4112243;28;20453;-46
2021/04/09 06:08:19;;;;;;;;;;;27.20;62.30;;;;;;4114453;28;19921;-49
2021/04/09 06:10:20;;;;;;;;;;;27.20;62.20;;;;;;4107086;28;20378;-50
2021/04/09 06:12:22;;;;;;;;;;;27.20;62.20;;;;;;4110741;28;20001;-51
2021/04/09 06:14:23;;;;;;;;;;;27.20;62.10;;;;;;4108477;28;19915;-51
2021/04/09 06:16:25;;;;;;;;;;;27.20;62.10;;;;;;4109127;28;19922;-54
2021/04/09 06:18:26;;;;;;;;;;;27.20;62.20;;;;;;4114827;28;19940;-53
2021/04/09 06:20:28;;;;;;;;;;;27.20;62.10;;;;;;4111573;28;19920;-51
2021/04/09 06:22:29;;;;;;;;;;;27.20;62.00;;;;;;4111672;28;20185;-49
2021/04/09 06:24:31;;;;;;;;;;;27.20;61.90;;;;;;4112288;28;20423;-51
2021/04/09 06:26:33;;;;;;;;;;;27.30;62.10;;;;;;4110428;28;19933;-49
2021/04/09 06:28:34;;;;;;;;;;;27.30;61.90;;;;;;4109850;28;19930;-52
2021/04/09 06:30:36;;;;;;;;;;;27.30;61.60;;;;;;4110825;28;20192;-49
2021/04/09 06:32:37;;;;;;;;;;;27.30;61.50;;;;;;4112834;28;19917;-53
2021/04/09 06:34:39;;;;;;;;;;;27.30;61.60;;;;;;4110819;28;20437;-48
2021/04/09 06:36:40;;;;;;;;;;;27.40;61.50;;;;;;4114740;28;20809;-49
2021/04/09 06:38:42;;;;;;;;;;;27.40;61.30;;;;;;4116342;28;19992;-50
2021/04/09 06:40:44;;;;;;;;;;;27.40;61.20;;;;;;4114515;28;19922;-51
2021/04/09 06:42:46;;;;;;;;;;;27.40;61.10;;;;;;4109538;28;19972;-49
2021/04/09 06:44:48;;;;;;;;;;;27.40;61.40;;;;;;4116474;28;19914;-52
2021/04/09 06:46:49;;;;;;;;;;;27.50;61.10;;;;;;4115168;28;20012;-48
2021/04/09 06:48:51;;;;;;;;;;;27.40;61.00;;;;;;4106827;28;19974;-48
2021/04/09 06:50:52;;;;;;;;;;;27.40;61.20;;;;;;4108695;28;20013;-51
2021/04/09 06:52:58;;;;;;;;;;;27.40;61.20;;;;;;4118997;28;19914;-51
2021/04/09 06:55:00;;;;;;;;;;;27.40;61.10;;;;;;4115288;28;20299;-49
2021/04/09 06:57:03;;;;;;;;;;;27.40;61.00;;;;;;4114497;28;19913;-53
2021/04/09 06:59:10;;;;;;;;;;;27.40;61.20;;;;;;4115183;28;19964;-49
2021/04/09 07:01:12;;;;;;;;;;;27.40;61.10;;;;;;4115860;28;19922;-48
2021/04/09 07:03:13;;;;;;;;;;;27.40;60.70;;;;;;4115640;28;20374;-50
2021/04/09 07:05:15;;;;;;;;;;;27.40;60.80;;;;;;4117518;28;19909;-53
2021/04/09 07:07:18;;;;;;;;;;;27.30;60.70;;;;;;4112429;28;19960;-50
2021/04/09 07:09:19;;;;;;;;;;;27.30;60.80;;;;;;4111578;28;19980;-51
2021/04/09 07:11:22;;;;;;;;;;;27.30;60.60;;;;;;4114715;28;19914;-47
2021/04/09 07:13:23;;;;;;;;;;;27.30;60.70;;;;;;4115165;28;20320;-48
2021/04/09 07:15:25;;;;;;;;;;;27.30;60.80;;;;;;4112773;28;19917;-52
2021/04/09 07:17:28;;;;;;;;;;;27.30;61.00;;;;;;4116906;28;20319;-56
2021/04/09 07:19:33;;;;;;;;;;;27.30;60.90;;;;;;4111334;28;20244;-50
2021/04/09 07:21:38;;;;;;;;;;;27.30;60.60;;;;;;4114870;28;19940;-47
2021/04/09 07:23:39;;;;;;;;;;;27.30;60.60;;;;;;4117198;28;19917;-49
2021/04/09 07:25:45;;;;;;;;;;;27.20;60.20;;;;;;4109991;28;19918;-49
2021/04/09 07:27:48;;;;;;;;;;;27.20;60.00;;;;;;4113072;28;19996;-48
2021/04/09 07:29:49;;;;;;;;;;;27.20;60.30;;;;;;4107714;28;19917;-47
2021/04/09 07:31:51;;;;;;;;;;;27.20;60.50;;;;;;4111762;28;19918;-51
2021/04/09 07:33:53;;;;;;;;;;;27.20;60.80;;;;;;4114302;28;19922;-47
2021/04/09 07:35:56;;;;;;;;;;;27.20;61.20;;;;;;4119573;28;19909;-51
2021/04/09 07:37:59;;;;;;;;;;;27.10;61.10;;;;;;4117800;28;20017;-50
2021/04/09 07:40:01;;;;;;;;;;;27.10;61.30;;;;;;4120654;28;19924;-54
2021/04/09 07:42:06;;;;;;;;;;;27.20;62.30;;;;;;4113272;28;19910;-51
2021/04/09 07:44:16;;;;;;;;;;;27.10;61.50;;;;;;4116449;28;19928;-48
2021/04/09 07:46:27;;;;;;;;;;;27.10;61.60;;;;;;4118066;28;20308;-53
2021/04/09 07:48:38;;;;;;;;;;;27.10;61.80;;;;;;4120579;28;19967;-47
2021/04/09 07:50:47;;;;;;;;;;;27.10;62.00;;;;;;4115207;28;21133;-52
2021/04/09 07:52:51;;;;;;;;;;;27.10;62.20;;;;;;4117926;28;19917;-50
2021/04/09 07:54:53;;;;;;;;;;;27.10;62.30;;;;;;4114799;28;20059;-48
2021/04/09 07:56:54;;;;;;;;;;;27.10;62.50;;;;;;4118026;28;19932;-51
2021/04/09 07:58:56;;;;;;;;;;;27.00;62.50;;;;;;4120465;28;20066;-51
2021/04/09 08:00:58;;;;;;;;;;;27.10;62.70;;;;;;4113298;28;19952;-51
2021/04/09 08:03:00;;;;;;;;;;;27.00;62.70;;;;;;4120635;28;19925;-47
2021/04/09 08:05:01;;;;;;;;;;;27.00;62.80;;;;;;4121420;28;19910;-52
2021/04/09 08:07:03;;;;;;;;;;;27.00;63.00;;;;;;4119424;28;20027;-53
2021/04/09 08:09:05;;;;;;;;;;;27.00;63.10;;;;;;4119755;28;19921;-53
2021/04/09 08:11:20;;;;;;;;;;;27.00;63.30;;;;;;4120078;28;19910;-50
2021/04/09 08:13:22;;;;;;;;;;;27.00;63.20;;;;;;4121572;28;19918;-46
2021/04/09 08:15:23;;;;;;;;;;;26.90;63.20;;;;;;4118795;28;19922;-50
2021/04/09 08:17:26;;;;;;;;;;;27.00;63.60;;;;;;4118589;28;19917;-46
2021/04/09 08:19:28;;;;;;;;;;;27.00;63.40;;;;;;4115049;28;19913;-48
2021/04/09 08:21:30;;;;;;;;;;;27.00;63.40;;;;;;4118590;28;19918;-49
2021/04/09 08:23:32;;;;;;;;;;;26.90;63.20;;;;;;4120678;28;19909;-48
2021/04/09 08:25:34;;;;;;;;;;;26.90;63.20;;;;;;4115917;28;20024;-47
2021/04/09 08:27:37;;;;;;;;;;;26.90;63.20;;;;;;4121034;28;19925;-51
2021/04/09 08:29:40;;;;;;;;;;;26.90;63.20;;;;;;4117515;28;20484;-53
2021/04/09 08:31:42;;;;;;;;;;;26.80;63.10;;;;;;4117810;28;19945;-52
2021/04/09 08:33:45;;;;;;;;;;;26.80;63.30;;;;;;4118514;28;19957;-52
2021/04/09 08:35:47;;;;;;;;;;;26.80;63.20;;;;;;4114972;28;19920;-53
2021/04/09 08:37:49;;;;;;;;;;;26.70;63.20;;;;;;4115070;28;20648;-52
2021/04/09 08:39:51;;;;;;;;;;;26.80;63.80;;;;;;4116427;28;19952;-51
2021/04/09 08:41:55;;;;;;;;;;;26.80;64.00;;;;;;4116968;28;20256;-51
2021/04/09 08:43:57;;;;;;;;;;;26.80;64.30;;;;;;4115031;28;19920;-50
2021/04/09 08:45:59;;;;;;;;;;;26.80;64.30;;;;;;4115581;28;19917;-51
2021/04/09 08:48:00;;;;;;;;;;;26.80;64.40;;;;;;4114537;28;19913;-46
2021/04/09 08:50:06;;;;;;;;;;;26.90;64.60;;;;;;4112782;28;20396;-49
2021/04/09 08:52:08;;;;;;;;;;;26.90;64.60;;;;;;4114763;28;19917;-56
2021/04/09 08:54:15;;;;;;;;;;;26.90;64.60;;;;;;4113687;28;20040;-51
2021/04/09 08:56:36;;;;;;;;;;;26.90;64.70;;;;;;4115072;28;20390;-52
2021/04/09 08:58:45;;;;;;;;;;;26.90;64.70;;;;;;4106534;28;20048;-49
2021/04/09 09:00:48;;;;;;;;;;;26.90;64.90;;;;;;4113325;28;19960;-45
2021/04/09 09:02:54;;;;;;;;;;;26.90;65.00;;;;;;4110777;28;19929;-46
2021/04/09 09:05:02;;;;;;;;;;;27.00;65.10;;;;;;4116465;28;19937;-54
2021/04/09 09:07:03;;;;;;;;;;;27.00;65.20;;;;;;4112454;28;19957;-51
2021/04/09 09:09:05;;;;;;;;;;;27.00;65.30;;;;;;4114282;28;20506;-49
2021/04/09 09:11:06;;;;;;;;;;;27.00;65.30;;;;;;4116347;28;19953;-47
2021/04/09 09:13:08;;;;;;;;;;;27.00;65.30;;;;;;4112387;28;19918;-48
2021/04/09 09:15:10;;;;;;;;;;;27.00;65.40;;;;;;4113161;28;20268;-53
2021/04/09 09:17:17;;;;;;;;;;;27.00;65.50;;;;;;4118006;28;20004;-45
2021/04/09 09:25:01;;;;;;;;;;;27.10;65.50;;;;;;4112776;28;20074;-53
2021/04/09 09:27:09;;;;;;;;;;;27.10;65.80;;;;;;4108780;28;20188;-51
2021/04/09 09:33:42;;;;;;;;;;;27.00;65.60;;;;;;4124916;23;20050;-87
2021/04/09 09:35:56;;;;;;;;;;;27.10;65.80;;;;;;4064097;29;19971;-82
2021/04/09 09:38:00;;;;;;;;;;;27.10;65.80;;;;;;4083392;29;20053;-84
2021/04/09 09:40:08;;;;;;;;;;;27.10;65.80;;;;;;4065305;29;19930;-83
2021/04/09 09:42:21;;;;;;;;;;;27.10;65.80;;;;;;4070440;28;19911;-81
2021/04/09 09:44:27;;;;;;;;;;;27.10;65.80;;;;;;4071101;29;19921;-83
2021/04/09 09:46:50;;;;;;;;;;;27.00;65.80;;;;;;4066650;28;19973;-83
2021/04/09 09:49:11;;;;;;;;;;;27.10;65.90;;;;;;4063690;29;20744;-82
2021/04/09 09:51:29;;;;;;;;;;;27.10;66.10;;;;;;4067550;29;19919;-79
2021/04/09 09:53:51;;;;;;;;;;;27.10;66.10;;;;;;4070003;29;20218;-82
2021/04/09 09:55:55;;;;;;;;;;;27.10;66.20;;;;;;4041541;29;19915;-81
2021/04/09 09:58:17;;;;;;;;;;;27.10;66.10;;;;;;4068099;28;19919;-82
2021/04/09 10:00:28;;;;;;;;;;;27.10;66.00;;;;;;4064976;28;19973;-81
2021/04/09 10:02:30;;;;;;;;;;;27.10;66.10;;;;;;4067786;29;20692;-82
2021/04/09 10:04:32;;;;;;;;;;;27.10;66.00;;;;;;4075402;23;19926;-50
2021/04/09 10:06:33;;;;;;;;;;;27.10;66.00;;;;;;4057370;28;19973;-48
2021/04/09 10:08:36;;;;;;;;;;;27.10;65.90;;;;;;4063902;29;20427;-51
2021/04/09 10:10:38;;;;;;;;;;;27.10;65.80;;;;;;4058621;29;19919;-52
2021/04/09 10:12:39;;;;;;;;;;;27.10;65.90;;;;;;4063199;29;20280;-50
2021/04/09 10:14:44;;;;;;;;;;;27.10;65.90;;;;;;4063709;29;19922;-54
2021/04/09 10:16:46;;;;;;;;;;;27.10;65.80;;;;;;4064346;29;20384;-52
2021/04/09 10:18:54;;;;;;;;;;;27.10;65.80;;;;;;4078578;28;20002;-50
2021/04/09 10:20:56;;;;;;;;;;;27.10;65.90;;;;;;4061789;28;19914;-55
2021/04/09 10:22:57;;;;;;;;;;;27.10;64.50;;;;;;4064661;29;19914;-51
2021/04/09 10:24:59;;;;;;;;;;;27.00;64.70;;;;;;4061056;29;19915;-54
2021/04/09 10:27:03;;;;;;;;;;;27.00;64.30;;;;;;4061573;29;19915;-55
2021/04/09 10:29:40;;;;;;;;;;;27.00;64.70;;;;;;4060374;29;20415;-54
2021/04/09 10:31:42;;;;;;;;;;;27.00;65.30;;;;;;4028410;29;19975;-53
2021/04/09 10:33:47;;;;;;;;;;;27.00;65.50;;;;;;4049044;29;19915;-52
2021/04/09 10:35:48;;;;;;;;;;;27.00;65.30;;;;;;4066986;29;20376;-56
2021/04/09 10:37:51;;;;;;;;;;;27.00;65.30;;;;;;4061433;29;19919;-56
2021/04/09 10:39:53;;;;;;;;;;;27.00;65.50;;;;;;4062499;28;19958;-48
2021/04/09 10:42:00;;;;;;;;;;;27.00;65.50;;;;;;4063298;29;19941;-55
2021/04/09 10:44:01;;;;;;;;;;;27.00;65.40;;;;;;4064880;29;20455;-53
2021/04/09 10:46:09;;;;;;;;;;;27.00;65.40;;;;;;4057811;29;19926;-53
2021/04/09 10:48:10;;;;;;;;;;;27.00;65.40;;;;;;4060308;28;19923;-52
2021/04/09 10:50:12;;;;;;;;;;;27.00;65.30;;;;;;4064517;29;19921;-56
2021/04/09 10:52:15;;;;;;;;;;;27.00;65.40;;;;;;4063284;29;19929;-53
2021/04/09 10:54:20;;;;;;;;;;;27.00;65.40;;;;;;4058697;29;19930;-58
2021/04/09 10:56:22;;;;;;;;;;;27.00;65.40;;;;;;4067308;29;20267;-52
2021/04/09 10:58:23;;;;;;;;;;;27.00;65.50;;;;;;4052414;28;20376;-55
2021/04/09 11:00:25;;;;;;;;;;;26.90;65.30;;;;;;4063791;28;19918;-54
2021/04/09 11:02:27;;;;;;;;;;;27.00;65.40;;;;;;4061832;29;19957;-58
2021/04/09 11:04:29;;;;;;;;;;;26.90;65.30;;;;;;4058857;28;20037;-55
2021/04/09 11:06:31;;;;;;;;;;;26.90;65.30;;;;;;4058634;29;20296;-56
2021/04/09 11:08:40;;;;;;;;;;;26.90;65.20;;;;;;4064551;29;19971;-54
2021/04/09 11:10:41;;;;;;;;;;;26.90;65.10;;;;;;4057680;29;20297;-56
2021/04/09 11:12:46;;;;;;;;;;;26.90;65.10;;;;;;4063573;28;19923;-51
2021/04/09 11:15:03;;;;;;;;;;;26.90;65.10;;;;;;4065112;29;19937;-55
2021/04/09 11:17:04;;;;;;;;;;;26.90;65.20;;;;;;4061239;29;20025;-53
2021/04/09 11:19:06;;;;;;;;;;;26.90;65.20;;;;;;4063587;29;20403;-52
2021/04/09 11:21:07;;;;;;;;;;;26.90;65.20;;;;;;4064078;28;20254;-53
2021/04/09 11:23:10;;;;;;;;;;;26.90;65.20;;;;;;4062676;29;20161;-48
2021/04/09 11:25:12;;;;;;;;;;;26.90;65.10;;;;;;4061073;29;19958;-56
2021/04/09 11:27:18;;;;;;;;;;;26.90;65.20;;;;;;4064144;29;20022;-53
2021/04/09 11:29:21;;;;;;;;;;;26.80;65.00;;;;;;4064469;29;19923;-55
2021/04/09 11:31:27;;;;;;;;;;;26.90;65.20;;;;;;4064155;28;20303;-55
2021/04/09 11:33:32;;;;;;;;;;;26.80;65.10;;;;;;4067875;28;19919;-56
2021/04/09 11:35:38;;;;;;;;;;;26.80;65.10;;;;;;4062060;29;20048;-55
2021/04/09 11:37:44;;;;;;;;;;;26.80;65.10;;;;;;4062489;29;20014;-56
2021/04/09 11:39:52;;;;;;;;;;;26.80;65.10;;;;;;4066245;28;19915;-53
2021/04/09 11:42:04;;;;;;;;;;;26.80;65.10;;;;;;4066493;29;20652;-52
2021/04/09 11:44:25;;;;;;;;;;;26.80;65.20;;;;;;4061218;29;19915;-55
2021/04/09 11:46:34;;;;;;;;;;;26.80;65.20;;;;;;4067314;28;19922;-59
2021/04/09 11:48:35;;;;;;;;;;;26.80;65.10;;;;;;4063148;28;20175;-54
2021/04/09 11:50:36;;;;;;;;;;;26.80;65.00;;;;;;4063504;29;20392;-53
2021/04/09 11:52:48;;;;;;;;;;;26.80;65.00;;;;;;4063348;29;20014;-56
2021/04/09 11:54:50;;;;;;;;;;;26.80;64.90;;;;;;4066739;29;19919;-57
2021/04/09 11:56:51;;;;;;;;;;;26.80;65.00;;;;;;4067830;28;19917;-58
2021/04/09 11:58:53;;;;;;;;;;;26.80;65.10;;;;;;4064061;29;19915;-55
2021/04/09 12:00:54;;;;;;;;;;;26.80;65.10;;;;;;4066152;29;19980;-56
2021/04/09 12:02:58;;;;;;;;;;;26.80;65.10;;;;;;4060863;28;19918;-58
2021/04/09 12:05:00;;;;;;;;;;;26.80;65.10;;;;;;4065311;29;20125;-49
2021/04/09 12:07:02;;;;;;;;;;;26.80;65.10;;;;;;4061032;29;20356;-55
2021/04/09 12:09:04;;;;;;;;;;;26.80;65.10;;;;;;4063353;29;19977;-53
2021/04/09 12:11:07;;;;;;;;;;;26.80;65.10;;;;;;4065012;29;20427;-53
2021/04/09 12:13:09;;;;;;;;;;;26.80;65.10;;;;;;4064156;28;20298;-53
2021/04/09 12:15:11;;;;;;;;;;;26.70;65.10;;;;;;4065003;29;23394;-53
2021/04/09 12:17:14;;;;;;;;;;;26.70;65.10;;;;;;4061516;29;20065;-49